Latest Coastal Weather Observations for Burnie Port

IDT60701

Issued at 10:35 am EDT Sunday 26 October 2014 (issued every 10 minutes, with the page automatically refreshed every 10 minutes)

About coastal observations | Map of coastal stations | Coastal observations for TAS | Marine services | Other Formats
Station Details ID: 091344 Name: BURNIE NTC AWS Lat: -41.05 Lon: 145.91 Height: 0.0 m
Data from the previous 72 hours. | See also: Recent months for locations in Tasmania
Date/Time
EDT
Temp

°C
Wind Pressure Rain
since 9am
mm
Weather Cloud Vis
km
Sea
Height
m
Swell
Dir
 
Speed
knots
Gust
knots
hPa Trend Height
m
Period
s
Dir
26/10:30am 12.6 N 6 8 1013.1 - - - - - - - - -
26/10:00am 13.0 ENE 4 7 1013.0 - - - - - - - - -
26/09:30am 13.4 E 5 8 1012.7 - - - - - - - - -
26/09:00am 13.4 ESE 6 7 1012.9 - - - - - - - - -
26/08:30am 13.5 ESE 3 5 1013.0 - - - - - - - - -
26/08:00am 13.4 ESE 2 3 1013.0 - - - - - - - - -
26/07:30am 13.4 S 3 5 1012.8 - - - - - - - - -
26/07:00am 13.3 SE 4 5 1012.5 - - - - - - - - -
26/06:30am 13.3 SE 5 7 1012.5 - - - - - - - - -
26/06:00am 13.4 ESE 6 7 1012.3 - - - - - - - - -
26/05:30am 13.5 E 6 8 1012.3 - - - - - - - - -
26/05:00am 13.6 ESE 4 6 1012.4 - - - - - - - - -
26/04:30am 13.6 ESE 4 5 1012.7 - - - - - - - - -
26/04:00am 13.7 ENE 3 5 1012.9 - - - - - - - - -
26/03:30am 13.6 E 4 5 1013.1 - - - - - - - - -
26/03:00am 13.6 E 5 6 1013.3 - - - - - - - - -
26/02:30am 13.6 E 8 10 1013.3 - - - - - - - - -
26/02:00am 13.8 E 8 11 1013.6 - - - - - - - - -
26/01:30am 14.0 E 7 10 1014.3 - - - - - - - - -
26/01:00am 14.1 ESE 6 7 1015.2 - - - - - - - - -
26/12:30am 14.0 ESE 6 8 1015.3 - - - - - - - - -
26/12:00am 14.0 E 6 8 1015.6 - - - - - - - - -
 
Date/Time
EDT
Temp

°C
Wind Pressure Rain
since 9am
mm
Weather Cloud Vis
km
Sea
Height
m
Swell
Dir
 
Speed
knots
Gust
knots
hPa Trend Height
m
Period
s
Dir
25/11:30pm 13.9 E 7 10 1015.7 - - - - - - - - -
25/11:00pm 14.0 E 10 13 1015.7 - - - - - - - - -
25/10:30pm 14.1 E 9 12 1016.1 - - - - - - - - -
25/10:00pm 14.1 E 9 12 1016.0 - - - - - - - - -
25/09:30pm 14.2 E 11 13 1015.9 - - - - - - - - -
25/09:00pm 14.2 ESE 12 13 1015.9 - - - - - - - - -
25/08:30pm 14.3 E 10 13 1015.9 - - - - - - - - -
25/08:00pm 14.5 E 12 14 1015.4 - - - - - - - - -
25/07:30pm 14.7 ESE 13 16 1015.4 - - - - - - - - -
25/07:00pm 15.0 ESE 14 16 1014.7 - - - - - - - - -
25/06:30pm 15.2 ESE 15 17 1014.1 - - - - - - - - -
25/06:00pm 15.4 ESE 14 16 1013.7 - - - - - - - - -
25/05:30pm 15.5 E 11 13 1013.3 - - - - - - - - -
25/05:00pm 15.6 E 8 10 1013.4 - - - - - - - - -
25/04:30pm 16.0 E 7 10 1013.5 - - - - - - - - -
25/04:00pm 16.7 E 5 8 1013.6 - - - - - - - - -
25/03:30pm 16.6 NNW 4 5 1013.8 - - - - - - - - -
25/03:00pm 16.9 NNW 3 4 1013.7 - - - - - - - - -
25/02:30pm 16.9 NNW 3 4 1013.9 - - - - - - - - -
25/02:00pm 17.2 N 2 3 1013.7 - - - - - - - - -
25/01:30pm 17.0 NNE 7 7 1013.8 - - - - - - - - -
25/01:00pm 17.1 NNE 6 7 1013.9 - - - - - - - - -
25/12:30pm 17.4 NNE 8 8 1014.1 - - - - - - - - -
25/12:00pm 17.5 NE 7 8 1014.5 - - - - - - - - -
25/11:30am 17.8 NE 5 7 1014.5 - - - - - - - - -
25/11:00am 18.1 E 3 5 1014.3 - - - - - - - - -
25/10:30am 18.1 S 5 8 1014.4 - - - - - - - - -
25/10:00am 17.7 SSW 6 9 1014.6 - - - - - - - - -
25/09:30am 17.1 WSW 6 10 1014.5 - - - - - - - - -
25/09:00am 16.4 WSW 8 12 1014.4 - - - - - - - - -
25/08:30am 15.7 SW 5 11 1014.1 - - - - - - - - -
25/08:00am 15.1 SW 5 9 1013.8 - - - - - - - - -
25/07:30am 14.5 WSW 5 9 1013.6 - - - - - - - - -
25/07:00am 13.7 W 10 12 1013.5 - - - - - - - - -
25/06:30am 13.7 W 7 11 1013.2 - - - - - - - - -
25/06:00am 13.0 WNW 7 10 1012.7 - - - - - - - - -
25/05:30am 13.7 W 7 10 1012.1 - - - - - - - - -
25/05:00am 13.4 WNW 5 9 1012.0 - - - - - - - - -
25/04:30am 13.4 WNW 6 9 1011.6 - - - - - - - - -
25/04:00am 13.2 WNW 6 9 1011.5 - - - - - - - - -
25/03:30am 13.2 WNW 5 7 1011.3 - - - - - - - - -
25/03:00am 13.6 WNW 4 5 1011.3 - - - - - - - - -
25/02:30am 14.0 WNW 5 7 1011.2 - - - - - - - - -
25/02:00am 14.2 WNW 5 8 1011.2 - - - - - - - - -
25/01:30am 14.4 WNW 5 8 1011.4 - - - - - - - - -
25/01:00am 14.3 WNW 5 8 1011.4 - - - - - - - - -
25/12:30am 14.9 WNW 5 8 1011.3 - - - - - - - - -
25/12:00am 14.7 WNW 8 11 1010.9 - - - - - - - - -
 
Date/Time
EDT
Temp

°C
Wind Pressure Rain
since 9am
mm
Weather Cloud Vis
km
Sea
Height
m
Swell
Dir
 
Speed
knots
Gust
knots
hPa Trend Height
m
Period
s
Dir
24/11:30pm 14.0 NW 8 10 1010.6 - - - - - - - - -
24/11:00pm 13.9 NW 6 7 1011.0 - - - - - - - - -
24/10:30pm 14.2 WNW 6 8 1010.7 - - - - - - - - -
24/10:00pm 14.4 WNW 4 6 1010.6 - - - - - - - - -
24/09:30pm 14.4 NNW 3 5 1010.7 - - - - - - - - -
24/09:00pm 14.6 CALM 0 1 1010.4 - - - - - - - - -
24/08:30pm 14.8 ENE 2 3 1010.4 - - - - - - - - -
24/08:00pm 14.9 E 2 3 1010.5 - - - - - - - - -
24/07:30pm 15.1 ESE 5 6 1010.3 - - - - - - - - -
24/07:00pm 15.0 ESE 11 12 1009.4 - - - - - - - - -
24/06:30pm 15.0 ESE 11 15 1009.6 - - - - - - - - -
24/06:00pm 15.0 ESE 11 14 1009.7 - - - - - - - - -
24/05:30pm 15.0 ESE 13 15 1009.9 - - - - - - - - -
24/05:00pm 15.1 ESE 12 15 1010.1 - - - - - - - - -
24/04:30pm 14.9 ESE 13 16 1010.1 - - - - - - - - -
24/04:00pm 14.8 ESE 14 16 1010.4 - - - - - - - - -
24/03:30pm 15.0 ESE 12 16 1011.4 - - - - - - - - -
24/03:00pm 14.8 ESE 14 18 1011.4 - - - - - - - - -
24/02:30pm 14.9 ESE 16 20 1012.1 - - - - - - - - -
24/02:00pm 14.9 SE 18 24 1012.1 - - - - - - - - -
24/01:30pm 14.6 SE 18 23 1012.6 - - - - - - - - -
24/01:00pm 14.5 SE 19 25 1013.0 - - - - - - - - -
24/12:30pm 14.4 SE 18 24 1013.4 - - - - - - - - -
24/12:00pm 14.0 SE 18 24 1013.9 - - - - - - - - -
24/11:30am 13.3 SE 17 25 1014.8 - - - - - - - - -
24/11:00am 13.3 SE 19 26 1015.4 - - - - - - - - -
24/10:30am 12.6 SE 17 23 1015.6 - - - - - - - - -
24/10:00am 12.0 SE 15 22 1016.2 - - - - - - - - -
24/09:30am 11.9 SE 16 25 1016.5 - - - - - - - - -
24/09:00am 11.8 SE 17 23 1016.9 - - - - - - - - -
24/08:30am 11.6 SE 18 23 1017.3 - - - - - - - - -
24/08:00am 11.8 SE 19 25 1017.6 - - - - - - - - -
24/07:30am 12.1 SE 21 27 1017.7 - - - - - - - - -
24/07:00am 12.5 ESE 21 27 1018.1 - - - - - - - - -
24/06:30am 12.7 SE 21 26 1018.3 - - - - - - - - -
24/06:00am 12.8 SE 21 27 1018.4 - - - - - - - - -
24/05:30am 12.8 SE 20 25 1018.5 - - - - - - - - -
24/05:00am 12.7 SE 22 26 1018.6 - - - - - - - - -
24/04:30am 12.7 SE 23 27 1018.6 - - - - - - - - -
24/04:00am 12.7 SE 22 27 1019.1 - - - - - - - - -
24/03:30am 12.4 ESE 22 27 1019.8 - - - - - - - - -
24/03:00am 12.4 SE 22 27 1020.4 - - - - - - - - -
24/02:30am 12.4 ESE 20 27 1020.8 - - - - - - - - -
24/02:00am 12.6 ESE 21 26 1021.2 - - - - - - - - -
24/01:30am 12.9 ESE 22 27 1021.8 - - - - - - - - -
24/01:02am 13.1 E 17 27 1021.9 - - - - - - - - -
24/01:00am 13.1 E 18 28 1022.0 - - - - - - - - -
24/12:56am 13.1 E 17 28 1022.0 - - - - - - - - -
24/12:30am 13.1 E 21 27 1022.3 - - - - - - - - -
24/12:00am 13.0 E 21 27 1022.6 - - - - - - - - -
 
Date/Time
EDT
Temp

°C
Wind Pressure Rain
since 9am
mm
Weather Cloud Vis
km
Sea
Height
m
Swell
Dir
 
Speed
knots
Gust
knots
hPa Trend Height
m
Period
s
Dir
23/11:30pm 13.0 E 20 26 1023.2 - - - - - - - - -
23/11:00pm 13.1 ENE 20 26 1023.1 - - - - - - - - -
23/10:30pm 13.3 E 17 24 1023.1 - - - - - - - - -
23/10:00pm 13.3 E 15 21 1023.5 - - - - - - - - -

Other Formats:

Comma delimited format used in spreadsheet applications
http://www.bom.gov.au/fwo/IDT60701/IDT60701.95963.axf

JavaScript Object Notation format (JSON) in row-major order
http://www.bom.gov.au/fwo/IDT60701/IDT60701.95963.json